createdAt,value
2018-06-11T00:01:31.577Z,0.00
2018-06-11T00:03:03.340Z,0.00
2018-06-11T00:04:35.152Z,0.00
2018-06-11T00:06:06.967Z,0.00
2018-06-11T00:07:39.230Z,0.00
2018-06-11T00:09:10.592Z,0.00
2018-06-11T00:10:42.406Z,0.00
2018-06-11T00:12:14.220Z,0.00
2018-06-11T00:13:46.034Z,0.00
2018-06-11T00:15:17.847Z,0.00
2018-06-11T00:16:49.663Z,0.00
2018-06-11T00:18:21.475Z,0.00
2018-06-11T00:19:53.287Z,0.00
2018-06-11T00:21:25.104Z,0.00
2018-06-11T00:22:56.957Z,0.00
2018-06-11T00:24:28.733Z,0.00
2018-06-11T00:26:00.692Z,0.00
2018-06-11T00:27:32.356Z,0.00
2018-06-11T00:29:04.168Z,0.00
2018-06-11T00:30:35.982Z,0.00
2018-06-11T00:32:07.845Z,0.00
2018-06-11T00:33:39.608Z,0.00
2018-06-11T00:35:11.423Z,0.00
2018-06-11T00:36:43.237Z,0.00
2018-06-11T00:38:15.051Z,0.00
2018-06-11T00:39:46.860Z,0.00
2018-06-11T00:41:18.673Z,0.00
2018-06-11T00:42:50.486Z,0.00
2018-06-11T00:44:22.399Z,0.00
2018-06-11T00:45:54.112Z,0.00
2018-06-11T00:47:25.925Z,0.00
2018-06-11T00:48:57.740Z,0.00
2018-06-11T00:50:29.550Z,0.00
2018-06-11T00:52:01.363Z,0.00
2018-06-11T00:53:33.177Z,0.00
2018-06-11T00:55:04.988Z,0.00
2018-06-11T00:56:36.802Z,0.00
2018-06-11T00:58:08.614Z,0.00
2018-06-11T00:59:40.428Z,0.00
2018-06-11T01:01:12.241Z,0.00
2018-06-11T01:02:44.152Z,0.00
2018-06-11T01:04:15.865Z,0.00
2018-06-11T01:05:47.677Z,0.00
2018-06-11T01:07:19.494Z,0.00
2018-06-11T01:08:51.302Z,0.00
2018-06-11T01:10:23.115Z,0.00
2018-06-11T01:11:54.928Z,0.00
2018-06-11T01:13:26.742Z,0.00
2018-06-11T01:14:58.554Z,0.00
2018-06-11T01:16:30.366Z,0.00
2018-06-11T01:18:02.180Z,0.00
2018-06-11T01:19:33.992Z,0.00
2018-06-11T01:21:06.306Z,0.00
2018-06-11T01:22:37.617Z,0.00
2018-06-11T01:24:09.430Z,0.00
2018-06-11T01:25:41.244Z,0.00
2018-06-11T01:27:13.055Z,0.00
2018-06-11T01:28:44.885Z,0.00
2018-06-11T01:30:16.682Z,0.00
2018-06-11T01:31:48.496Z,0.00
2018-06-11T01:33:20.307Z,0.00
2018-06-11T01:34:52.120Z,0.00
2018-06-11T01:36:23.937Z,0.00
2018-06-11T01:37:55.747Z,0.00
2018-06-11T01:39:27.667Z,0.00
2018-06-11T01:40:59.372Z,0.00
2018-06-11T01:42:31.195Z,0.00
2018-06-11T01:44:02.998Z,0.00
2018-06-11T01:45:34.812Z,0.00
2018-06-11T01:47:06.624Z,0.00
2018-06-11T01:48:38.440Z,0.00
2018-06-11T01:50:10.252Z,0.00
2018-06-11T01:51:42.068Z,0.00
2018-06-11T01:53:13.876Z,0.00
2018-06-11T01:54:45.688Z,0.00
2018-06-11T01:56:17.501Z,0.00
2018-06-11T01:57:49.414Z,0.00
2018-06-11T01:59:21.126Z,0.00
2018-06-11T02:00:52.940Z,0.00
2018-06-11T02:02:24.751Z,0.00
2018-06-11T02:03:56.564Z,0.00
2018-06-11T02:05:28.377Z,0.00
2018-06-11T02:07:00.189Z,0.00
2018-06-11T02:08:32.002Z,0.00
2018-06-11T02:10:03.814Z,0.00
2018-06-11T02:11:35.627Z,0.00
2018-06-11T02:13:07.440Z,0.00
2018-06-11T02:14:39.253Z,0.00
2018-06-11T02:16:11.166Z,0.00
2018-06-11T02:17:42.879Z,0.00
2018-06-11T02:19:14.704Z,0.00
2018-06-11T02:20:46.502Z,0.00
2018-06-11T02:22:18.315Z,0.00
2018-06-11T02:23:50.128Z,0.00
2018-06-11T02:25:21.939Z,0.00
2018-06-11T02:26:53.752Z,0.00
2018-06-11T02:28:25.565Z,0.00
2018-06-11T02:29:57.377Z,0.00
2018-06-11T02:31:29.190Z,0.00
2018-06-11T02:33:01.006Z,0.00
2018-06-11T02:34:32.922Z,0.00
2018-06-11T02:36:04.629Z,0.00
2018-06-11T02:37:36.440Z,0.00
2018-06-11T02:39:08.307Z,0.00
2018-06-11T02:40:40.064Z,0.00
2018-06-11T02:42:11.883Z,0.00
2018-06-11T02:43:43.689Z,0.00
2018-06-11T02:45:15.502Z,0.00
2018-06-11T02:46:47.312Z,0.00
2018-06-11T02:48:19.125Z,0.00
2018-06-11T02:49:50.939Z,0.00
2018-06-11T02:51:22.750Z,0.00
2018-06-11T02:52:54.963Z,0.00
2018-06-11T02:54:26.377Z,0.00
2018-06-11T02:55:58.187Z,0.00
2018-06-11T02:57:30.006Z,0.00
2018-06-11T02:59:01.813Z,0.00
2018-06-11T03:00:33.625Z,0.00
2018-06-11T03:02:05.438Z,0.00
2018-06-11T03:03:37.250Z,0.00
2018-06-11T03:05:09.063Z,0.00
2018-06-11T03:06:40.875Z,0.00
2018-06-11T03:08:12.686Z,0.00
2018-06-11T03:09:44.500Z,0.00
2018-06-11T03:11:16.417Z,0.00
2018-06-11T03:12:48.124Z,0.00
2018-06-11T03:14:19.936Z,0.00
2018-06-11T03:15:51.748Z,0.00
2018-06-11T03:17:23.560Z,0.00
2018-06-11T03:18:55.373Z,0.00
2018-06-11T03:20:27.187Z,0.00
2018-06-11T03:21:59.004Z,0.00
2018-06-11T03:23:31.060Z,0.00
2018-06-11T03:25:02.621Z,0.00
2018-06-11T03:26:34.434Z,0.00
2018-06-11T03:28:06.245Z,0.00
2018-06-11T03:29:38.158Z,0.00
2018-06-11T03:31:09.870Z,0.00
2018-06-11T03:32:41.684Z,0.00
2018-06-11T03:34:13.494Z,0.00
2018-06-11T03:35:45.351Z,0.00
2018-06-11T03:37:17.118Z,0.00
2018-06-11T03:38:48.929Z,0.00
2018-06-11T03:40:20.742Z,0.00
2018-06-11T03:41:52.555Z,0.00
2018-06-11T03:43:24.366Z,0.00
2018-06-11T03:44:56.179Z,0.00
2018-06-11T03:46:27.991Z,0.00
2018-06-11T03:47:59.904Z,0.00
2018-06-11T03:49:31.616Z,0.00
2018-06-11T03:51:03.428Z,0.00
2018-06-11T03:52:35.245Z,0.00
2018-06-11T03:54:07.053Z,0.00
2018-06-11T03:55:38.865Z,0.00
2018-06-11T03:57:10.677Z,0.00
2018-06-11T03:58:42.489Z,0.00
2018-06-11T04:00:14.302Z,0.00
2018-06-11T04:01:46.113Z,0.00
2018-06-11T04:03:17.926Z,0.00
2018-06-11T04:04:49.740Z,0.00
2018-06-11T04:06:21.650Z,0.00
2018-06-11T04:07:53.362Z,0.00
2018-06-11T04:09:25.175Z,0.00
2018-06-11T04:10:57.048Z,0.00
2018-06-11T04:12:28.798Z,0.00
2018-06-11T04:14:00.612Z,0.00
2018-06-11T04:15:32.429Z,0.00
2018-06-11T04:17:04.236Z,0.00
2018-06-11T04:18:36.196Z,0.00
2018-06-11T04:20:07.859Z,0.00
2018-06-11T04:21:39.671Z,0.00
2018-06-11T04:23:11.483Z,0.00
2018-06-11T04:24:43.695Z,0.00
2018-06-11T04:26:15.106Z,0.00
2018-06-11T04:27:46.918Z,0.00
2018-06-11T04:29:18.732Z,0.00
2018-06-11T04:30:50.542Z,0.00
2018-06-11T04:32:22.354Z,0.00
2018-06-11T04:33:54.166Z,0.00
2018-06-11T04:35:25.978Z,0.00
2018-06-11T04:36:57.789Z,0.00
2018-06-11T04:38:29.600Z,0.00
2018-06-11T04:40:01.415Z,0.00
2018-06-11T04:41:33.224Z,0.00
2018-06-11T04:43:05.136Z,0.00
2018-06-11T04:44:36.848Z,0.00
2018-06-11T04:46:08.660Z,0.00
2018-06-11T04:47:40.471Z,0.00
2018-06-11T04:49:12.283Z,0.00
2018-06-11T04:50:44.095Z,0.00
2018-06-11T04:52:15.910Z,0.00
2018-06-11T04:53:47.719Z,0.00
2018-06-11T04:55:19.781Z,0.00
2018-06-11T04:56:51.344Z,0.00
2018-06-11T04:58:23.156Z,0.00
2018-06-11T04:59:54.967Z,0.00
2018-06-11T05:01:26.881Z,0.00
2018-06-11T05:02:58.592Z,0.00
2018-06-11T05:04:30.403Z,0.00
2018-06-11T05:06:02.215Z,0.00
2018-06-11T05:07:34.026Z,0.00
2018-06-11T05:09:05.840Z,0.00
2018-06-11T05:10:37.651Z,0.00
2018-06-11T05:12:09.464Z,0.00
2018-06-11T05:13:41.275Z,0.00
2018-06-11T05:15:13.085Z,0.00
2018-06-11T05:16:44.898Z,0.00
2018-06-11T05:18:16.713Z,0.00
2018-06-11T05:19:48.623Z,0.00
2018-06-11T05:21:20.334Z,0.00
2018-06-11T05:22:52.146Z,0.00
2018-06-11T05:24:23.958Z,0.00
2018-06-11T05:25:55.921Z,0.00
2018-06-11T05:27:27.582Z,0.00
2018-06-11T05:28:59.394Z,0.00
2018-06-11T05:30:31.206Z,0.00
2018-06-11T05:32:03.020Z,0.00
2018-06-11T05:33:34.832Z,0.00
2018-06-11T05:35:06.645Z,0.00
2018-06-11T05:36:38.456Z,0.00
2018-06-11T05:38:10.372Z,0.00
2018-06-11T05:39:42.080Z,0.00
2018-06-11T05:41:13.892Z,0.00
2018-06-11T05:42:45.705Z,0.00
2018-06-11T05:44:17.518Z,0.00
2018-06-11T05:45:49.330Z,0.00
2018-06-11T05:47:21.141Z,0.00
2018-06-11T05:48:52.954Z,0.00
2018-06-11T05:50:24.766Z,0.00
2018-06-11T05:51:56.579Z,0.00
2018-06-11T05:53:28.439Z,0.00
2018-06-11T05:55:00.203Z,0.00
2018-06-11T05:56:32.365Z,0.00
2018-06-11T05:58:03.827Z,0.00
2018-06-11T05:59:35.640Z,0.00
2018-06-11T06:01:07.452Z,0.00
2018-06-11T06:02:39.262Z,0.00
2018-06-11T06:04:11.075Z,0.00
2018-06-11T06:05:42.887Z,0.00
2018-06-11T06:07:14.699Z,0.00
2018-06-11T06:08:46.586Z,0.00
2018-06-11T06:10:18.323Z,0.00
2018-06-11T06:11:50.135Z,0.00
2018-06-11T06:13:21.950Z,0.00
2018-06-11T06:14:53.859Z,0.00
2018-06-11T06:16:25.571Z,0.00
2018-06-11T06:17:57.382Z,0.00
2018-06-11T06:19:29.195Z,0.00
2018-06-11T06:21:01.006Z,0.00
2018-06-11T06:22:32.817Z,0.00
2018-06-11T06:24:04.629Z,0.00
2018-06-11T06:25:36.440Z,0.00
2018-06-11T06:27:08.500Z,0.00
2018-06-11T06:28:40.062Z,0.00
2018-06-11T06:30:11.873Z,0.00
2018-06-11T06:31:43.684Z,0.00
2018-06-11T06:33:15.595Z,0.00
2018-06-11T06:34:47.447Z,0.00
2018-06-11T06:36:19.120Z,0.00
2018-06-11T06:37:50.930Z,0.00
2018-06-11T06:39:22.742Z,0.00
2018-06-11T06:40:54.554Z,0.00
2018-06-11T06:42:26.366Z,0.00
2018-06-11T06:43:58.181Z,0.00
2018-06-11T06:45:29.989Z,0.00
2018-06-11T06:47:01.800Z,0.00
2018-06-11T06:48:33.612Z,0.00
2018-06-11T06:50:05.424Z,0.00
2018-06-11T06:51:37.335Z,0.00
2018-06-11T06:53:09.047Z,0.00
2018-06-11T06:54:40.859Z,0.00
2018-06-11T06:56:12.671Z,0.00
2018-06-11T06:57:44.732Z,0.00
2018-06-11T06:59:16.293Z,0.00
2018-06-11T07:00:48.105Z,0.00
2018-06-11T07:02:19.920Z,0.00
2018-06-11T07:03:51.728Z,0.00
2018-06-11T07:05:23.540Z,0.00
2018-06-11T07:06:55.350Z,0.00
2018-06-11T07:08:27.163Z,0.00
2018-06-11T07:09:59.528Z,0.00
2018-06-11T07:11:30.787Z,0.00
2018-06-11T07:13:02.597Z,0.00
2018-06-11T07:14:34.408Z,0.00
2018-06-11T07:16:06.220Z,0.00
2018-06-11T07:17:38.035Z,0.00
2018-06-11T07:19:09.843Z,0.00
2018-06-11T07:20:41.654Z,0.00
2018-06-11T07:22:13.616Z,0.00
2018-06-11T07:23:45.276Z,0.00
2018-06-11T07:25:17.088Z,0.00
2018-06-11T07:26:48.899Z,0.00
2018-06-11T07:28:21.111Z,0.00
2018-06-11T07:29:52.523Z,0.00
2018-06-11T07:31:24.348Z,0.00
2018-06-11T07:32:56.144Z,0.00
2018-06-11T07:34:27.956Z,0.00
2018-06-11T07:35:59.769Z,0.00
2018-06-11T07:37:31.578Z,0.00
2018-06-11T07:39:03.389Z,0.00
2018-06-11T07:40:35.200Z,0.00
2018-06-11T07:42:07.012Z,0.00
2018-06-11T07:43:38.824Z,0.00
2018-06-11T07:45:10.636Z,0.00
2018-06-11T07:46:42.546Z,0.00
2018-06-11T07:48:14.258Z,0.00
2018-06-11T07:49:46.068Z,0.00
2018-06-11T07:51:17.881Z,0.00
2018-06-11T07:52:49.692Z,0.00
2018-06-11T07:54:21.504Z,0.00
2018-06-11T07:55:53.318Z,0.00
2018-06-11T07:57:25.130Z,0.00
2018-06-11T07:58:57.189Z,0.00
2018-06-11T08:00:28.750Z,0.00
2018-06-11T08:02:00.562Z,0.00
2018-06-11T08:03:32.373Z,0.00
2018-06-11T08:05:04.289Z,0.00
2018-06-11T08:06:35.997Z,0.00
2018-06-11T08:08:07.808Z,0.00
2018-06-11T08:09:39.619Z,0.00
2018-06-11T08:11:11.433Z,0.00
2018-06-11T08:12:43.243Z,0.00
2018-06-11T08:14:15.057Z,0.00
2018-06-11T08:15:46.865Z,0.00
2018-06-11T08:17:18.678Z,0.00
2018-06-11T08:18:50.488Z,0.00
2018-06-11T08:20:22.299Z,0.00
2018-06-11T08:21:54.110Z,0.00
2018-06-11T08:23:26.022Z,0.00
2018-06-11T08:24:57.733Z,0.00
2018-06-11T08:26:29.544Z,0.00
2018-06-11T08:28:01.355Z,0.00
2018-06-11T08:29:33.417Z,0.00
2018-06-11T08:31:04.979Z,0.00
2018-06-11T08:32:36.790Z,0.00
2018-06-11T08:34:08.602Z,0.00
2018-06-11T08:35:40.413Z,0.00
2018-06-11T08:37:12.225Z,0.00
2018-06-11T08:38:44.036Z,0.00
2018-06-11T08:40:15.848Z,0.00
2018-06-11T08:41:47.762Z,0.00
2018-06-11T08:43:19.505Z,0.00
2018-06-11T08:44:51.280Z,0.00
2018-06-11T08:46:23.093Z,0.00
2018-06-11T08:47:54.903Z,0.00
2018-06-11T08:49:26.714Z,0.00
2018-06-11T08:50:58.526Z,0.00
2018-06-11T08:52:30.336Z,0.00
2018-06-11T08:54:02.148Z,0.00
2018-06-11T08:55:33.959Z,0.00
2018-06-11T08:57:05.769Z,0.00
2018-06-11T08:58:37.581Z,0.00
2018-06-11T09:00:09.507Z,0.00
2018-06-11T09:01:41.202Z,0.00
2018-06-11T09:03:13.014Z,0.00
2018-06-11T09:04:44.828Z,0.00
2018-06-11T09:06:16.636Z,0.00
2018-06-11T09:07:48.454Z,0.00
2018-06-11T09:09:20.265Z,0.00
2018-06-11T09:10:52.076Z,0.00
2018-06-11T09:12:23.888Z,0.00
2018-06-11T09:13:55.700Z,0.00
2018-06-11T09:15:27.510Z,0.00
2018-06-11T09:16:59.322Z,0.00
2018-06-11T09:18:31.254Z,0.00
2018-06-11T09:20:02.946Z,0.00
2018-06-11T09:21:34.755Z,0.00
2018-06-11T09:23:06.566Z,0.00
2018-06-11T09:24:38.378Z,0.00
2018-06-11T09:26:10.414Z,0.00
2018-06-11T09:27:42.001Z,0.00
2018-06-11T09:29:13.809Z,0.00
2018-06-11T09:30:45.870Z,0.00
2018-06-11T09:32:17.436Z,0.00
2018-06-11T09:33:49.243Z,0.00
2018-06-11T09:35:21.053Z,0.00
2018-06-11T09:36:52.964Z,0.00
2018-06-11T09:38:24.674Z,0.00
2018-06-11T09:39:56.478Z,5.63
2018-06-11T09:41:28.289Z,5.63
2018-06-11T09:43:00.100Z,5.63
2018-06-11T09:44:31.911Z,5.63
2018-06-11T09:46:03.722Z,11.25
2018-06-11T09:47:35.537Z,11.25
2018-06-11T09:49:07.369Z,16.88
2018-06-11T09:50:39.155Z,16.88
2018-06-11T09:52:10.968Z,22.50
2018-06-11T09:53:42.776Z,28.13
2018-06-11T09:55:14.690Z,33.75
2018-06-11T09:56:46.398Z,39.38
2018-06-11T09:58:18.211Z,45.00
2018-06-11T09:59:50.022Z,56.25
2018-06-11T10:01:21.833Z,56.25
2018-06-11T10:02:53.642Z,61.88
2018-06-11T10:04:25.454Z,67.50
2018-06-11T10:05:57.264Z,73.13
2018-06-11T10:07:29.076Z,78.75
2018-06-11T10:09:00.915Z,84.38
2018-06-11T10:10:32.699Z,95.63
2018-06-11T10:12:04.510Z,129.38
2018-06-11T10:13:36.437Z,140.63
2018-06-11T10:15:08.132Z,118.13
2018-06-11T10:16:39.945Z,123.75
2018-06-11T10:18:12.064Z,129.38
2018-06-11T10:19:43.568Z,123.75
2018-06-11T10:21:15.379Z,118.13
2018-06-11T10:22:47.520Z,118.13
2018-06-11T10:24:19.005Z,123.75
2018-06-11T10:25:50.967Z,140.63
2018-06-11T10:27:22.628Z,168.75
2018-06-11T10:28:54.438Z,163.13
2018-06-11T10:30:26.252Z,146.25
2018-06-11T10:36:33.595Z,416.25
2018-06-11T10:38:05.840Z,438.75
2018-06-11T10:41:08.932Z,399.38
2018-06-11T10:42:40.744Z,540.00
2018-06-11T10:44:12.556Z,540.00
2018-06-11T10:45:44.373Z,568.13
2018-06-11T10:47:16.216Z,472.50
2018-06-11T10:48:48.015Z,472.50
2018-06-11T10:50:19.815Z,556.88
2018-06-11T10:53:23.441Z,686.25
2018-06-11T10:54:55.356Z,669.38
2018-06-11T10:57:58.902Z,630.00
2018-06-11T10:59:31.020Z,585.00
2018-06-11T11:01:02.618Z,551.25
2018-06-11T11:02:34.333Z,686.25
2018-06-11T11:04:06.157Z,720.00
2018-06-11T11:05:37.967Z,776.25
2018-06-11T11:07:09.783Z,838.13
2018-06-11T11:10:13.420Z,877.50
2018-06-11T11:11:45.236Z,922.50
2018-06-11T11:13:17.243Z,945.00
2018-06-11T11:14:48.872Z,961.88
2018-06-11T11:16:20.689Z,905.63
2018-06-11T11:17:52.511Z,843.75
2018-06-11T11:19:24.327Z,708.75
2018-06-11T11:20:56.178Z,697.50
2018-06-11T11:22:27.966Z,652.50
2018-06-11T11:23:59.788Z,573.75
2018-06-11T11:27:03.423Z,500.63
2018-06-11T11:28:35.245Z,551.25
2018-06-11T11:30:07.063Z,585.00
2018-06-11T11:31:38.883Z,686.25
2018-06-11T11:33:10.799Z,770.63
2018-06-11T11:34:42.515Z,776.25
2018-06-11T11:36:14.335Z,781.88
2018-06-11T11:37:46.154Z,826.88
2018-06-11T11:40:49.794Z,866.25
2018-06-11T11:43:53.423Z,1181.25
2018-06-11T11:45:25.244Z,1321.88
2018-06-11T11:46:57.060Z,1541.25
2018-06-11T11:48:28.877Z,1591.88
2018-06-11T11:50:00.697Z,1648.13
2018-06-11T11:51:32.515Z,1653.75
2018-06-11T11:53:04.434Z,1698.75
2018-06-11T11:54:36.153Z,1771.88
2018-06-11T11:59:12.342Z,1321.88
2018-06-11T12:00:43.436Z,1591.88
2018-06-11T12:02:15.560Z,1440.00
2018-06-11T12:03:47.076Z,1524.38
2018-06-11T12:05:18.896Z,1434.38
2018-06-11T12:06:51.049Z,1282.50
2018-06-11T12:08:22.745Z,1383.75
2018-06-11T12:09:54.360Z,1423.13
2018-06-11T12:11:26.286Z,1541.25
2018-06-11T12:12:58.032Z,1732.50
2018-06-11T12:14:29.914Z,1670.63
2018-06-11T12:17:33.464Z,1423.13
2018-06-11T12:19:05.629Z,1350.00
2018-06-11T12:20:37.115Z,1271.25
2018-06-11T12:22:08.958Z,1794.38
2018-06-11T12:23:40.750Z,1653.75
2018-06-11T12:25:12.572Z,1456.88
2018-06-11T12:26:44.394Z,1749.38
2018-06-11T12:28:16.417Z,1625.63
2018-06-11T12:29:48.135Z,1395.00
2018-06-11T12:31:19.890Z,1496.25
2018-06-11T12:32:51.679Z,1726.88
2018-06-11T12:34:23.511Z,1884.38
2018-06-11T12:35:55.626Z,1996.88
2018-06-11T12:37:27.145Z,2013.75
2018-06-11T12:38:58.966Z,1850.63
2018-06-11T12:40:30.817Z,1935.00
2018-06-11T12:42:02.701Z,1895.63
2018-06-11T12:43:34.433Z,1901.25
2018-06-11T12:45:06.274Z,1743.75
2018-06-11T12:46:38.076Z,1771.88
2018-06-11T12:48:10.296Z,1777.50
2018-06-11T12:49:41.950Z,1890.00
2018-06-11T12:51:13.542Z,1890.00
2018-06-11T12:52:45.433Z,1895.63
2018-06-11T12:54:17.192Z,1895.63
2018-06-11T12:55:49.113Z,1800.00
2018-06-11T12:57:21.139Z,1743.75
2018-06-11T13:00:24.788Z,1305.00
2018-06-11T13:01:56.303Z,1147.50
2018-06-11T13:03:28.128Z,1102.50
2018-06-11T13:04:59.980Z,1018.13
2018-06-11T13:06:31.874Z,1276.88
2018-06-11T13:08:03.594Z,1091.25
2018-06-11T13:09:35.417Z,1057.50
2018-06-11T13:11:07.244Z,945.00
2018-06-11T13:12:39.064Z,1035.00
2018-06-11T13:14:11.247Z,1113.75
2018-06-11T13:15:42.961Z,1276.88
2018-06-11T13:17:15.047Z,1935.00
2018-06-11T13:18:49.961Z,1890.00
2018-06-11T13:20:21.649Z,1850.63
2018-06-11T13:21:53.294Z,1800.00
2018-06-11T13:23:22.348Z,1726.88
2018-06-11T13:24:53.734Z,1726.88
2018-06-11T13:26:25.469Z,1665.00
2018-06-11T13:29:29.100Z,1856.25
2018-06-11T13:31:02.064Z,1980.00
2018-06-11T13:32:32.760Z,1850.63
2018-06-11T13:34:04.873Z,1591.88
2018-06-11T13:35:37.312Z,1271.25
2018-06-11T13:37:08.351Z,961.88
2018-06-11T13:38:41.407Z,1271.25
2018-06-11T13:40:11.862Z,1620.00
2018-06-11T13:41:43.931Z,2475.00
2018-06-11T13:43:15.782Z,2649.38
2018-06-11T13:44:47.380Z,2784.38
2018-06-11T13:46:19.151Z,2598.75
2018-06-11T13:47:51.955Z,2559.38
2018-06-11T13:49:22.798Z,2840.63
2018-06-11T13:50:54.644Z,2677.50
2018-06-11T13:52:26.446Z,2238.75
2018-06-11T13:55:30.092Z,1957.50
2018-06-11T13:57:02.252Z,1878.75
2018-06-11T13:58:33.755Z,1698.75
2018-06-11T14:01:37.690Z,1946.25
2018-06-11T14:03:09.217Z,1890.00
2018-06-11T14:04:41.036Z,1760.63
2018-06-11T14:06:12.867Z,1755.00
2018-06-11T14:07:44.783Z,1805.63
2018-06-11T14:09:16.507Z,1816.88
2018-06-11T14:10:48.536Z,2176.88
2018-06-11T14:12:20.154Z,2176.88
2018-06-11T14:13:52.070Z,1822.50
2018-06-11T14:15:23.827Z,1485.00
2018-06-11T14:18:27.448Z,1530.00
2018-06-11T14:19:59.372Z,1518.75
2018-06-11T14:21:31.098Z,1591.88
2018-06-11T14:23:02.920Z,1102.50
2018-06-11T14:24:34.743Z,1175.63
2018-06-11T14:27:38.390Z,1473.75
2018-06-11T14:29:10.212Z,1726.88
2018-06-11T14:30:42.035Z,1861.88
2018-06-11T14:32:13.860Z,2345.63
2018-06-11T14:33:45.993Z,2621.25
2018-06-11T14:36:49.332Z,2491.88
2018-06-11T14:39:53.078Z,1839.38
2018-06-11T14:41:25.006Z,1743.75
2018-06-11T14:42:56.623Z,1378.13
2018-06-11T14:44:28.450Z,1462.50
2018-06-11T14:48:23.184Z,1878.75
2018-06-11T14:49:54.400Z,2323.13
2018-06-11T14:51:27.138Z,2019.38
2018-06-11T14:52:58.247Z,1816.88
2018-06-11T14:54:30.177Z,1845.00
2018-06-11T14:56:01.692Z,1648.13
2018-06-11T14:59:05.541Z,1625.63
2018-06-11T15:00:38.201Z,1631.25
2018-06-11T15:02:08.985Z,1490.63
2018-06-11T15:03:41.171Z,1451.25
2018-06-11T15:05:12.683Z,1530.00
2018-06-11T15:06:44.456Z,1321.88
2018-06-11T15:08:16.588Z,1507.50
2018-06-11T15:09:48.103Z,1440.00
2018-06-11T15:11:20.838Z,1389.38
2018-06-11T15:12:51.799Z,1327.50
2018-06-11T15:14:24.308Z,1276.88
2018-06-11T15:15:55.398Z,1395.00
2018-06-11T15:17:27.522Z,1428.75
2018-06-11T15:18:59.141Z,1507.50
2018-06-11T15:22:02.689Z,1468.13
2018-06-11T15:23:34.581Z,1411.88
2018-06-11T15:25:06.866Z,1440.00
2018-06-11T15:28:10.292Z,1563.75
2018-06-11T15:29:41.804Z,1653.75
2018-06-11T15:31:14.163Z,1743.75
2018-06-11T15:32:45.494Z,1631.25
2018-06-11T15:34:17.572Z,1800.00
2018-06-11T15:37:21.267Z,2025.00
2018-06-11T15:38:52.742Z,2244.38
2018-06-11T15:40:24.568Z,2317.50
2018-06-11T15:41:56.692Z,2086.88
2018-06-11T15:43:28.413Z,2126.25
2018-06-11T15:45:00.237Z,1845.00
2018-06-11T15:46:32.061Z,1479.38
2018-06-11T15:48:03.681Z,2199.38
2018-06-11T15:49:36.064Z,2441.25
2018-06-11T15:51:07.335Z,2463.75
2018-06-11T15:54:10.980Z,2396.25
2018-06-11T15:55:43.047Z,2536.88
2018-06-11T15:57:14.933Z,2334.38
2018-06-11T16:00:18.276Z,2401.88
2018-06-11T16:01:50.618Z,2345.63
2018-06-11T16:04:53.749Z,2306.25
2018-06-11T16:06:25.591Z,2165.63
2018-06-11T16:07:57.906Z,2199.38
2018-06-11T16:11:01.053Z,2255.63
2018-06-11T16:12:32.874Z,2261.25
2018-06-11T16:14:04.848Z,1951.88
2018-06-11T16:15:36.526Z,1951.88
2018-06-11T16:17:08.350Z,1912.50
2018-06-11T16:18:40.188Z,1980.00
2018-06-11T16:20:12.305Z,1890.00
2018-06-11T16:21:44.383Z,1608.75
2018-06-11T16:23:15.646Z,1856.25
2018-06-11T16:24:47.700Z,2148.75
2018-06-11T16:26:19.295Z,2131.88
2018-06-11T16:27:51.127Z,1738.13
2018-06-11T16:30:54.773Z,1929.38
2018-06-11T16:32:27.352Z,1957.50
2018-06-11T16:33:58.809Z,2075.63
2018-06-11T16:37:02.084Z,2075.63
2018-06-11T16:38:33.927Z,2210.63
2018-06-11T16:40:06.019Z,2025.00
2018-06-11T16:43:09.364Z,2115.00
2018-06-11T16:44:41.188Z,2210.63
2018-06-11T16:47:44.837Z,1828.13
2018-06-11T16:49:16.953Z,1850.63
2018-06-11T16:53:52.771Z,1861.88
2018-06-11T16:55:23.958Z,2013.75
2018-06-11T16:56:55.931Z,1991.25
2018-06-11T17:00:00.076Z,1856.25
2018-06-11T17:01:31.460Z,1923.75
2018-06-11T17:04:34.908Z,1794.38
2018-06-11T17:06:06.742Z,2036.25
2018-06-11T17:09:10.375Z,1788.75
2018-06-11T17:10:42.199Z,1575.00
2018-06-11T17:12:14.732Z,1440.00
2018-06-11T17:15:17.680Z,534.38
2018-06-11T17:16:50.789Z,967.50
2018-06-11T17:18:21.523Z,1755.00
2018-06-11T17:19:53.347Z,832.50
2018-06-11T17:21:24.991Z,601.88
2018-06-11T17:22:56.786Z,590.63
2018-06-11T17:24:29.243Z,601.88
2018-06-11T17:26:01.065Z,618.75
2018-06-11T17:27:32.925Z,646.88
2018-06-11T17:29:04.546Z,1046.25
2018-06-11T17:30:36.098Z,1518.75
2018-06-11T17:32:08.254Z,1468.13
2018-06-11T17:33:39.568Z,1603.13
2018-06-11T17:36:43.697Z,697.50
2018-06-11T17:38:15.313Z,1490.63
2018-06-11T17:39:46.832Z,1400.63
2018-06-11T17:41:18.682Z,658.13
2018-06-11T17:42:50.478Z,759.38
2018-06-11T17:44:22.339Z,686.25
2018-06-11T17:45:54.338Z,1541.25
2018-06-11T17:47:25.957Z,1811.25
2018-06-11T17:48:58.170Z,1636.88
2018-06-11T17:50:29.634Z,1378.13
2018-06-11T17:52:02.294Z,1237.50
2018-06-11T17:55:05.723Z,1822.50
2018-06-11T17:56:37.188Z,1085.63
2018-06-11T17:58:08.734Z,1710.00
2018-06-11T17:59:40.528Z,1816.88
2018-06-11T18:01:12.777Z,1783.13
2018-06-11T18:02:44.349Z,1794.38
2018-06-11T18:05:47.872Z,1771.88
2018-06-11T18:07:19.651Z,1833.75
2018-06-11T18:08:51.468Z,1423.13
2018-06-11T18:10:23.866Z,1659.38
2018-06-11T18:11:55.126Z,1749.38
2018-06-11T18:13:27.039Z,1783.13
2018-06-11T18:14:58.761Z,1659.38
2018-06-11T18:16:30.590Z,1698.75
2018-06-11T18:19:34.433Z,1631.25
2018-06-11T18:22:37.952Z,1681.88
2018-06-11T18:24:09.701Z,1670.63
2018-06-11T18:25:41.528Z,1642.50
2018-06-11T18:27:13.408Z,1575.00
2018-06-11T18:28:45.392Z,1620.00
2018-06-11T18:30:17.006Z,1468.13
2018-06-11T18:31:48.929Z,1631.25
2018-06-11T18:33:20.645Z,1625.63
2018-06-11T18:34:52.462Z,1580.63
2018-06-11T18:36:24.324Z,1625.63
2018-06-11T18:37:56.420Z,1687.50
2018-06-11T18:39:28.239Z,1597.50
2018-06-11T18:40:59.753Z,1406.25
2018-06-11T18:44:03.403Z,1153.13
2018-06-11T18:45:35.222Z,1327.50
2018-06-11T18:47:07.081Z,1299.38
2018-06-11T18:48:38.875Z,1288.13
2018-06-11T18:50:10.796Z,1260.00
2018-06-11T18:51:42.513Z,1265.63
2018-06-11T18:53:14.376Z,1136.25
2018-06-11T18:54:46.156Z,1108.13
2018-06-11T18:56:18.124Z,1012.50
2018-06-11T18:57:49.802Z,984.38
2018-06-11T18:59:21.635Z,1012.50
2018-06-11T19:02:25.285Z,894.38
2018-06-11T19:03:57.123Z,1001.25
2018-06-11T19:05:28.911Z,984.38
2018-06-11T19:07:01.049Z,990.00
2018-06-11T19:08:32.716Z,860.63
2018-06-11T19:10:04.489Z,669.38
2018-06-11T19:11:36.245Z,630.00
2018-06-11T19:13:08.018Z,618.75
2018-06-11T19:14:39.870Z,585.00
2018-06-11T19:16:11.667Z,613.13
2018-06-11T19:17:43.494Z,697.50
2018-06-11T19:19:15.305Z,832.50
2018-06-11T19:22:18.947Z,573.75
2018-06-11T19:23:50.773Z,500.63
2018-06-11T19:25:22.588Z,500.63
2018-06-11T19:26:54.444Z,421.88
2018-06-11T19:28:26.328Z,410.63
2018-06-11T19:29:58.251Z,393.75
2018-06-11T19:33:01.941Z,286.88
2018-06-11T19:34:33.510Z,230.63
2018-06-11T19:37:37.150Z,236.25
2018-06-11T19:39:09.273Z,258.75
2018-06-11T19:40:40.819Z,253.13
2018-06-11T19:42:12.609Z,253.13
2018-06-11T19:43:44.432Z,213.75
2018-06-11T19:45:16.252Z,219.38
2018-06-11T19:46:48.372Z,196.88
2018-06-11T19:48:20.200Z,191.25
2018-06-11T19:49:51.762Z,191.25
2018-06-11T19:51:23.528Z,168.75
2018-06-11T19:52:55.448Z,151.88
2018-06-11T19:55:58.989Z,168.75
2018-06-11T19:57:31.345Z,163.13
2018-06-11T19:59:02.627Z,163.13
2018-06-11T20:00:34.485Z,151.88
2018-06-11T20:02:06.798Z,146.25
2018-06-11T20:05:10.108Z,129.38
2018-06-11T20:06:41.723Z,118.13
2018-06-11T20:08:14.164Z,112.50
2018-06-11T20:09:45.564Z,101.25
2018-06-11T20:11:17.200Z,90.00
2018-06-11T20:12:49.212Z,78.75
2018-06-11T20:14:21.122Z,61.88
2018-06-11T20:15:52.654Z,56.25
2018-06-11T20:17:24.862Z,50.63
2018-06-11T20:18:56.278Z,45.00
2018-06-11T20:20:28.300Z,33.75
2018-06-11T20:21:59.917Z,33.75
2018-06-11T20:23:31.832Z,28.13
2018-06-11T20:25:03.550Z,22.50
2018-06-11T20:26:35.376Z,16.88
2018-06-11T20:28:07.189Z,11.25
2018-06-11T20:29:39.006Z,11.25
2018-06-11T20:31:10.825Z,5.63
2018-06-11T20:32:42.642Z,5.63
2018-06-11T20:34:14.460Z,5.63
2018-06-11T20:35:46.279Z,0.00
2018-06-11T20:37:18.143Z,0.00
2018-06-11T20:38:49.915Z,0.00
2018-06-11T20:40:21.734Z,0.00
2018-06-11T20:41:53.654Z,0.00
2018-06-11T20:43:25.369Z,0.00
2018-06-11T20:44:57.188Z,0.00
2018-06-11T20:46:29.007Z,0.00
2018-06-11T20:48:00.825Z,0.00
2018-06-11T20:49:32.640Z,0.00
2018-06-11T20:51:04.458Z,0.00
2018-06-11T20:52:36.338Z,0.00
2018-06-11T20:54:08.093Z,0.00
2018-06-11T20:55:39.912Z,0.00